^^
Grace C. Lehan Memorial Weather Station Historical Data
Daily Summary for May 25, 2022 Units:  English    Metric   Both
Daily Weekly Monthly Yearly
  High: Low: Average:
Temperature: 54.4 °F 51.9 °F 53.1 °F
Dew Point: 46.3 °F 45.9 °F 46.1 °F
Humidity: 80% 74% 77%
Wind Speed: 0mph 0mph 0mph
Wind Gust: 0mph - -
Wind- -
Pressure: 30.32 in 30.31 in -
Precipitation: 0.00 in    
 
 
Tabular Data for May 25, 2022
Time Temperature Dew Point Pressure Wind Wind Speed Wind Gust Humidity Rainfall Rate (Hourly) solar
00:09 54.4 °F 46.3 °F 30.31 in Calm     74% 0.00 in 0 W/m2
00:14 54.2 °F 46.1 °F 30.31 in Calm     74% 0.00 in 0 W/m2
00:19 54.1 °F 46 °F 30.31 in Calm     74% 0.00 in 0 W/m2
00:24 54 °F 46.2 °F 30.32 in Calm     74.7% 0.00 in 0 W/m2
00:29 53.9 °F 46.2 °F 30.32 in Calm     75% 0.00 in 0 W/m2
00:34 53.8 °F 46.1 °F 30.32 in Calm     75% 0.00 in 0 W/m2
00:39 53.7 °F 46.1 °F 30.32 in Calm     75.5% 0.00 in 0 W/m2
00:44 53.6 °F 46.2 °F 30.32 in Calm     76% 0.00 in 0 W/m2
00:49 53.4 °F 46.1 °F 30.32 in Calm     76% 0.00 in 0 W/m2
00:54 53.3 °F 46 °F 30.32 in Calm     76.4% 0.00 in 0 W/m2
00:59 53.1 °F 46.1 °F 30.32 in Calm     77% 0.00 in 0 W/m2
01:04 53 °F 46.2 °F 30.32 in Calm     77.6% 0.00 in 0 W/m2
01:09 52.8 °F 46.2 °F 30.32 in Calm     78% 0.00 in 0 W/m2
01:14 52.7 °F 46.2 °F 30.32 in Calm     78.5% 0.00 in 0 W/m2
01:19 52.6 °F 46.1 °F 30.32 in Calm     78.4% 0.00 in 0 W/m2
01:23 52.5 °F 46.2 °F 30.31 in Calm     79% 0.00 in 0 W/m2
01:29 52.3 °F 46 °F 30.31 in Calm     79% 0.00 in 0 W/m2
01:34 52.2 °F 45.9 °F 30.32 in Calm     79% 0.00 in 0 W/m2
01:39 52.1 °F 46.2 °F 30.32 in Calm     80% 0.00 in 0 W/m2
01:44 52 °F 46 °F 30.32 in Calm     80% 0.00 in 0 W/m2
01:48 51.9 °F 45.9 °F 30.32 in Calm     80% 0.00 in 0 W/m2
Hartford County Weather
Compliments of Weather Underground - 4 mb